M I D A S
Marine Information and Data Acquisition System
Tripno 2146 of the Zeeleeuw from 2011-07-15 08:13:18 to 2011-07-15 12:50:18
Back to CruiseResearch ActivitiesStationsMapUnderway DataData graphs

EquipmentUnitsComment
TimeDGPSUTC
LatitudeDGPSDM.mWGS84
LongitudeDGPSDM.mWGS84
TemperatureSBE03/SBE38deg celciusITS90
ConductivitySBE21S/mITS90
SalinitySBE21 Practical Salinity Units
ChlorophylAChelsea fluorimeterg/lCalibrated in Aceton
Missing or incorrect values are displayed as -999
Sea surface data collected by the RV Zeeleeuw from 2011-07-15 03:36:13 to 2011-07-15 12:59:38
Time Latitude Longitude Temperature Conductivity Salinity ChlorophylA
2011-07-15 03:37:19 51°13.646 2°56.008 20.4385 0.009811 0.054584 -3.020363
2011-07-15 03:38:19 51°13.65 2°56.005 20.4381 0.009811 0.054583 -3.020363
2011-07-15 03:39:19 51°13.652 2°56.006 20.4376 0.009811 0.054581 -3.020363
2011-07-15 03:39:44 51°13.653 2°56.006 20.4378 0.009811 0.05458 -3.020363
2011-07-15 03:41:18 51°13.653 2°56.006 20.4379 0.009811 0.054579 -3.020363
2011-07-15 03:42:18 51°13.636 2°56.016 20.4387 0.009811 0.054578 -3.020363
2011-07-15 03:43:19 51°13.636 2°56.016 20.4391 0.009811 0.054577 -3.020363
2011-07-15 03:44:18 51°13.636 2°56.016 20.4377 0.009811 0.054575 -3.020363
2011-07-15 03:45:19 51°13.635 2°56.016 20.4387 0.009811 0.054573 -3.020363
2011-07-15 03:46:19 51°13.635 2°56.016 20.4334 0.009811 0.054572 -3.020363
2011-07-15 03:47:18 51°13.635 2°56.016 20.4355 0.009811 0.054572 -3.020363
2011-07-15 03:48:18 51°13.635 2°56.017 20.4362 0.009811 0.054571 -3.020363
2011-07-15 03:49:19 51°13.635 2°56.017 20.4356 0.009811 0.054569 -3.020363
2011-07-15 03:50:18 51°13.635 2°56.017 20.4374 0.009811 0.054568 -3.020363
2011-07-15 03:51:18 51°13.636 2°56.016 20.4371 0.009811 0.054568 -3.020363
2011-07-15 03:52:19 51°13.635 2°56.016 20.438 0.009811 0.054566 -3.020363
2011-07-15 03:53:18 51°13.635 2°56.016 20.437 0.009811 0.054566 -3.020363
2011-07-15 03:54:18 51°13.635 2°56.017 20.4364 0.009811 0.054564 -3.020363
2011-07-15 03:55:18 51°13.635 2°56.017 20.4371 0.009811 0.054563 -3.020363
2011-07-15 03:56:18 51°13.636 2°56.017 20.4349 0.009811 0.054562 -3.020363
2011-07-15 03:57:18 51°13.636 2°56.016 20.4355 0.009811 0.054561 -3.020363
2011-07-15 03:58:19 51°13.636 2°56.015 20.4356 0.009811 0.05456 -3.020363
2011-07-15 03:59:18 51°13.636 2°56.015 20.4345 0.009811 0.054559 -3.020363
2011-07-15 04:00:18 51°13.636 2°56.015 20.4341 0.009811 0.054558 -3.020363
2011-07-15 04:01:19 51°13.636 2°56.016 20.4337 0.009811 0.054557 -3.020363
2011-07-15 04:02:18 51°13.636 2°56.015 20.4332 0.009811 0.054556 -3.020363
2011-07-15 04:03:18 51°13.636 2°56.016 20.4326 0.009811 0.054555 -3.020363
2011-07-15 04:04:18 51°13.636 2°56.016 20.4303 0.009811 0.054555 -3.020363
2011-07-15 04:05:19 51°13.637 2°56.016 20.4328 0.009811 0.054554 -3.020363
2011-07-15 04:06:18 51°13.636 2°56.016 20.4332 0.009811 0.054553 -3.020363
2011-07-15 04:07:18 51°13.636 2°56.016 20.4337 0.009811 0.054552 -3.020363
2011-07-15 04:08:18 51°13.636 2°56.015 20.4318 0.009811 0.054551 -3.020363
2011-07-15 04:09:18 51°13.636 2°56.015 20.4359 0.009811 0.05455 -3.020363
2011-07-15 04:10:18 51°13.636 2°56.015 20.4341 0.009811 0.054549 -3.020363
2011-07-15 04:11:18 51°13.636 2°56.016 20.4341 0.009811 0.054549 -3.020363
2011-07-15 04:12:18 51°13.637 2°56.016 20.433 0.009811 0.054547 -3.020363
2011-07-15 04:13:18 51°13.637 2°56.017 20.434 0.009811 0.054547 -3.020363
2011-07-15 04:14:18 51°13.637 2°56.017 20.4328 0.009811 0.054546 -3.020363
2011-07-15 04:15:18 51°13.637 2°56.017 20.4318 0.009811 0.054545 -3.020363
2011-07-15 04:16:18 51°13.636 2°56.017 20.4302 0.009811 0.054544 -3.020363
2011-07-15 04:17:18 51°13.636 2°56.018 20.4305 0.009811 0.054543 -3.020363
2011-07-15 04:18:19 51°13.637 2°56.019 20.4277 0.009811 0.054543 -3.020363
2011-07-15 04:19:18 51°13.637 2°56.02 20.4297 0.009811 0.054542 -3.020363
2011-07-15 04:20:18 51°13.637 2°56.02 20.4286 0.009811 0.054541 -3.020363
2011-07-15 04:21:19 51°13.636 2°56.02 20.4293 0.009811 0.054541 -3.020363
2011-07-15 04:22:19 51°13.636 2°56.019 20.4304 0.009811 0.05454 -3.020363
2011-07-15 04:23:18 51°13.636 2°56.019 20.4288 0.009811 0.054539 -3.020363
2011-07-15 04:24:19 51°13.636 2°56.019 20.4276 0.009811 0.054539 -3.020363
2011-07-15 04:25:18 51°13.636 2°56.018 20.4292 0.009811 0.054538 -3.020363
2011-07-15 04:26:19 51°13.636 2°56.017 20.4282 0.009811 0.054538 -3.020363
2011-07-15 04:27:18 51°13.636 2°56.016 20.4275 0.009811 0.054537 -3.020363
2011-07-15 04:28:18 51°13.636 2°56.016 20.4265 0.009811 0.054536 -3.020363
2011-07-15 04:29:19 51°13.636 2°56.017 20.4254 0.009811 0.054536 -3.020363
2011-07-15 04:30:18 51°13.636 2°56.017 20.423 0.009811 0.054535 -3.020363
2011-07-15 04:31:18 51°13.636 2°56.017 20.4228 0.009811 0.054534 -3.020363
2011-07-15 04:32:18 51°13.636 2°56.017 20.4269 0.009811 0.054534 -3.020363
2011-07-15 04:33:19 51°13.636 2°56.017 20.4277 0.009811 0.054533 -3.020363
2011-07-15 04:34:18 51°13.636 2°56.017 20.4262 0.009811 0.054533 -3.020363
2011-07-15 04:35:18 51°13.636 2°56.018 20.4272 0.009811 0.054532 -3.020363
2011-07-15 04:36:18 51°13.636 2°56.018 20.4251 0.009811 0.054532 -3.020363
2011-07-15 04:37:19 51°13.636 2°56.018 20.4254 0.009811 0.054531 -3.020363
2011-07-15 04:38:18 51°13.636 2°56.018 20.428 0.009811 0.054531 -3.020363
2011-07-15 04:39:19 51°13.637 2°56.017 20.4262 0.009811 0.05453 -3.020363
2011-07-15 04:40:18 51°13.636 2°56.017 20.425 0.009811 0.05453 -3.020363
2011-07-15 04:41:19 51°13.636 2°56.017 20.4252 0.009811 0.05453 -3.020363
2011-07-15 04:42:18 51°13.636 2°56.017 20.4221 0.009811 0.05453 -3.020363
2011-07-15 04:43:19 51°13.637 2°56.016 20.4245 0.009811 0.054529 -3.020363
2011-07-15 04:44:19 51°13.637 2°56.016 20.4225 0.009811 0.054528 -3.020363
2011-07-15 04:45:18 51°13.637 2°56.016 20.4209 0.009811 0.054528 -3.020363
2011-07-15 04:46:18 51°13.636 2°56.018 20.4238 0.009811 0.054528 -3.020363
2011-07-15 04:47:18 51°13.637 2°56.018 20.4229 0.009811 0.054528 -3.020363
2011-07-15 04:48:18 51°13.637 2°56.018 20.4217 0.009811 0.054528 -3.020363
2011-07-15 04:49:18 51°13.637 2°56.018 20.419 0.009811 0.054527 -3.020363
2011-07-15 04:50:19 51°13.637 2°56.018 20.4178 0.009811 0.054527 -3.020363
2011-07-15 04:51:18 51°13.637 2°56.018 20.4254 0.009811 0.054526 -3.020363
2011-07-15 04:52:19 51°13.637 2°56.018 20.4277 0.009811 0.054526 -3.020363
2011-07-15 04:53:18 51°13.636 2°56.018 20.4249 0.009708 0.054011 -3.020363
2011-07-15 04:54:18 51°13.637 2°56.017 20.4231 0.009708 0.054011 -3.020363
2011-07-15 04:55:18 51°13.637 2°56.016 20.4206 0.009811 0.054526 -3.020363
2011-07-15 04:56:18 51°13.638 2°56.016 20.4198 0.009708 0.054011 -3.020363
2011-07-15 04:57:19 51°13.638 2°56.015 20.421 0.009708 0.05401 -3.020363
2011-07-15 04:58:19 51°13.638 2°56.015 20.4232 0.009708 0.05401 -3.020363
2011-07-15 04:59:18 51°13.637 2°56.015 20.4206 0.009708 0.05401 -3.020363
2011-07-15 05:00:18 51°13.637 2°56.016 20.419 0.009708 0.05401 -3.020363
2011-07-15 05:01:19 51°13.637 2°56.016 20.4177 0.009708 0.054009 -3.020363
2011-07-15 05:02:19 51°13.637 2°56.016 20.4131 0.009708 0.054009 -3.020363
2011-07-15 05:03:18 51°13.636 2°56.016 20.4104 0.009708 0.054009 -3.020363
2011-07-15 05:04:18 51°13.637 2°56.016 20.4161 0.009708 0.054009 -3.020363
2011-07-15 05:05:18 51°13.637 2°56.016 20.4164 0.009708 0.054009 -3.020363
2011-07-15 05:06:19 51°13.636 2°56.017 20.4192 0.009708 0.054009 -3.020363
2011-07-15 05:07:18 51°13.636 2°56.017 20.434 0.009708 0.054009 -3.020363
2011-07-15 05:08:19 51°13.636 2°56.017 20.3866 0.009708 0.054009 -3.020363
2011-07-15 05:09:19 51°13.636 2°56.018 20.4013 0.009708 0.054009 -3.020363
2011-07-15 05:10:18 51°13.636 2°56.017 20.3969 0.009708 0.054009 -3.020363
2011-07-15 05:11:18 51°13.636 2°56.017 20.405 0.009708 0.054009 -3.020363
2011-07-15 05:12:19 51°13.636 2°56.018 20.3969 0.009708 0.054009 -3.020363
2011-07-15 05:13:19 51°13.636 2°56.017 20.402 0.009708 0.054009 -3.020363
2011-07-15 05:14:19 51°13.636 2°56.017 20.4113 0.009708 0.054009 -3.020363
2011-07-15 05:15:18 51°13.636 2°56.017 20.4005 0.009708 0.054009 -3.020363
2011-07-15 05:16:19 51°13.636 2°56.018 20.3998 0.009708 0.054009 -3.020363
2011-07-15 05:17:19 51°13.636 2°56.018 20.3982 0.009708 0.054008 -3.020363
2011-07-15 05:18:18 51°13.636 2°56.017 20.4001 0.009708 0.054008 -3.020363
2011-07-15 05:19:19 51°13.636 2°56.018 20.3996 0.009708 0.054007 -3.020363
2011-07-15 05:20:18 51°13.635 2°56.018 20.3968 0.009708 0.054007 -3.020363
2011-07-15 05:21:19 51°13.635 2°56.018 20.3977 0.009708 0.054006 -3.020363
2011-07-15 05:22:19 51°13.636 2°56.018 20.3963 0.009708 0.054005 -3.020363
2011-07-15 05:23:19 51°13.636 2°56.018 20.3475 0.009708 0.054005 -3.020363
2011-07-15 05:24:19 51°13.636 2°56.017 20.3848 0.009708 0.054004 -3.020363
2011-07-15 05:25:19 51°13.635 2°56.018 20.4055 0.009708 0.054003 -3.020363
2011-07-15 05:26:19 51°13.636 2°56.017 20.4175 0.009708 0.054002 -3.020363
2011-07-15 05:27:19 51°13.635 2°56.017 20.4126 0.009708 0.054001 -3.020363
2011-07-15 05:28:19 51°13.636 2°56.017 20.4072 0.009708 0.054 -3.020363
2011-07-15 05:29:19 51°13.636 2°56.017 20.4037 0.009708 0.053998 -3.020363
2011-07-15 05:30:19 51°13.637 2°56.016 20.3988 0.009708 0.053997 -3.020363
2011-07-15 05:31:19 51°13.637 2°56.016 20.4001 0.009708 0.053996 -3.020363
2011-07-15 05:32:19 51°13.637 2°56.016 20.4025 0.009708 0.053995 -3.020363
2011-07-15 05:33:18 51°13.637 2°56.015 20.4026 0.009708 0.053994 -3.020363
2011-07-15 05:34:19 51°13.637 2°56.015 20.3982 0.009708 0.053993 -3.020363
2011-07-15 05:35:19 51°13.637 2°56.015 20.402 0.009708 0.053991 -3.020363
2011-07-15 05:36:18 51°13.637 2°56.016 20.4037 0.009708 0.05399 -3.020363
2011-07-15 05:37:18 51°13.637 2°56.016 20.395 0.009708 0.053989 -3.020363
2011-07-15 05:38:18 51°13.637 2°56.017 20.3969 0.009708 0.053988 -3.020363
2011-07-15 05:39:19 51°13.637 2°56.018 20.3875 0.009708 0.053987 -3.020363
2011-07-15 05:40:19 51°13.637 2°56.018 20.3934 0.009708 0.053986 -3.020363
2011-07-15 05:41:19 51°13.637 2°56.018 20.3958 0.009708 0.053986 -3.020363
2011-07-15 05:42:18 51°13.637 2°56.018 20.3947 0.009708 0.053985 -3.020363
2011-07-15 05:43:19 51°13.637 2°56.018 20.3951 0.009708 0.053984 -3.020363
2011-07-15 05:44:19 51°13.637 2°56.019 20.3957 0.009708 0.053984 -3.020363
2011-07-15 05:45:18 51°13.638 2°56.018 20.4007 0.009708 0.053983 -3.020363
2011-07-15 05:46:19 51°13.639 2°56.017 20.3997 0.009708 0.053982 -3.020363
2011-07-15 05:47:18 51°13.64 2°56.016 20.4022 0.009708 0.053982 -3.020363
2011-07-15 05:48:19 51°13.641 2°56.015 20.4018 0.009708 0.053982 -3.020363
2011-07-15 05:49:19 51°13.639 2°56.016 20.3998 0.009708 0.053982 -3.020363
2011-07-15 05:50:19 51°13.639 2°56.016 20.4008 0.009708 0.053981 -3.020363
2011-07-15 05:51:19 51°13.639 2°56.016 20.4015 0.009708 0.053981 -3.020363
2011-07-15 05:52:19 51°13.638 2°56.015 20.4028 0.009708 0.05398 -3.020363
2011-07-15 05:53:19 51°13.636 2°56.016 20.4003 0.009708 0.053981 -3.020363
2011-07-15 05:54:19 51°13.637 2°56.016 20.4037 0.009708 0.053981 -3.020363
2011-07-15 05:55:18 51°13.637 2°56.015 20.4053 0.009708 0.053981 -3.020363
2011-07-15 05:56:19 51°13.639 2°56.014 20.4031 0.009708 0.053981 -3.020363
2011-07-15 05:57:19 51°13.639 2°56.015 20.4029 0.009708 0.053982 -3.020363
2011-07-15 05:58:18 51°13.637 2°56.017 20.4051 0.009708 0.053982 -3.020363
2011-07-15 05:59:19 51°13.638 2°56.016 20.4061 0.009708 0.053983 -3.020363
2011-07-15 06:00:19 51°13.637 2°56.017 20.4079 0.009708 0.053984 -3.020363
2011-07-15 06:01:19 51°13.637 2°56.016 20.4062 0.009708 0.053984 -3.020363
2011-07-15 06:02:19 51°13.638 2°56.015 20.4093 0.009708 0.053986 -3.020363
2011-07-15 06:03:19 51°13.637 2°56.016 20.4068 0.009708 0.053986 -3.020363
2011-07-15 06:04:19 51°13.638 2°56.016 20.4078 0.009708 0.053987 -3.020363
2011-07-15 06:05:19 51°13.638 2°56.016 20.4106 0.009708 0.053989 -3.020363
2011-07-15 06:06:19 51°13.637 2°56.017 20.4009 0.009708 0.05399 -3.020363
2011-07-15 06:07:19 51°13.638 2°56.016 20.4131 0.009708 0.053991 -3.020363
2011-07-15 06:08:19 51°13.638 2°56.016 20.4133 0.009708 0.053993 -3.020363
2011-07-15 06:09:19 51°13.638 2°56.016 20.4081 0.009708 0.053995 -3.020363
2011-07-15 06:10:19 51°13.637 2°56.017 20.41 0.009708 0.053996 -3.020363
2011-07-15 06:11:19 51°13.639 2°56.017 20.4068 0.009708 0.053997 -3.020363
2011-07-15 06:12:19 51°13.637 2°56.018 20.4187 0.009708 0.053998 -3.020363
2011-07-15 06:13:19 51°13.643 2°56.014 20.4081 0.009708 0.054 -3.020363
2011-07-15 06:14:18 51°13.63 2°56.023 20.4009 0.009708 0.054001 -3.020363
2011-07-15 06:15:19 51°13.632 2°56.022 20.4081 0.009708 0.054002 -3.020363
2011-07-15 06:16:19 51°13.633 2°56.021 20.4105 0.009708 0.054004 -3.020363
2011-07-15 06:17:18 51°13.638 2°56.016 20.4106 0.009708 0.054005 -3.020363
2011-07-15 06:18:19 51°13.633 2°56.021 20.4164 0.009708 0.054006 -3.020363
2011-07-15 06:19:18 51°13.635 2°56.019 20.4133 0.009708 0.054007 -3.020363
2011-07-15 06:20:19 51°13.636 2°56.018 20.4158 0.009708 0.054009 -3.020363
2011-07-15 06:21:19 51°13.637 2°56.017 20.4147 0.009708 0.05401 -3.020363
2011-07-15 06:22:18 51°13.636 2°56.017 20.4153 0.009708 0.054012 -3.020363
2011-07-15 06:23:19 51°13.638 2°56.015 20.418 0.009708 0.054013 -3.020363
2011-07-15 06:24:19 51°13.638 2°56.015 20.4223 0.009708 0.054014 -3.020363
2011-07-15 06:25:18 51°13.633 2°56.019 20.4211 0.009708 0.054016 -3.020363
2011-07-15 06:26:19 51°13.634 2°56.019 20.4219 0.009708 0.054017 -3.020363
2011-07-15 06:27:18 51°13.636 2°56.016 20.4225 0.009708 0.054018 -3.020363
2011-07-15 06:28:19 51°13.637 2°56.015 20.4172 0.009708 0.05402 -3.020363
2011-07-15 06:29:19 51°13.635 2°56.016 20.4317 0.009708 0.054022 -3.020363
2011-07-15 06:30:18 51°13.636 2°56.016 20.4305 0.009708 0.054023 -3.020363
2011-07-15 06:31:19 51°13.634 2°56.018 20.4306 0.009708 0.054025 -3.020363
2011-07-15 06:32:19 51°13.633 2°56.019 20.4281 0.009708 0.054026 -3.020363
2011-07-15 06:33:18 51°13.633 2°56.019 20.4316 0.009708 0.054027 -3.020363
2011-07-15 06:34:19 51°13.635 2°56.018 20.4364 0.009708 0.05403 -3.020363
2011-07-15 06:35:19 51°13.636 2°56.017 20.4347 0.009708 0.054031 -3.020363
2011-07-15 06:36:19 51°13.636 2°56.017 20.4328 0.009708 0.054032 -3.020363
2011-07-15 06:37:19 51°13.635 2°56.017 20.4342 0.009708 0.054034 -3.020363
2011-07-15 06:38:18 51°13.635 2°56.018 20.4359 0.009708 0.054034 -3.020363
2011-07-15 06:39:19 51°13.634 2°56.019 20.4379 0.009708 0.054036 -3.020363
2011-07-15 06:40:19 51°13.636 2°56.019 20.44 0.009708 0.054037 -3.020363
2011-07-15 06:41:18 51°13.636 2°56.019 20.443 0.009606 0.053523 -3.020363
2011-07-15 06:42:19 51°13.636 2°56.019 20.4438 0.009606 0.053524 -3.020363
2011-07-15 06:43:18 51°13.638 2°56.018 20.4434 0.009606 0.053525 -3.020363
2011-07-15 06:44:19 51°13.639 2°56.018 20.4413 0.009708 0.054042 -3.020363
2011-07-15 06:45:19 51°13.638 2°56.019 20.4489 0.009708 0.054043 -3.020363
2011-07-15 06:46:18 51°13.637 2°56.019 20.4471 0.009606 0.053529 -3.020363
2011-07-15 06:47:19 51°13.636 2°56.019 20.45 0.009708 0.054046 -3.020363
2011-07-15 06:48:19 51°13.636 2°56.019 20.4472 0.009708 0.054047 -3.020363
2011-07-15 06:49:19 51°13.635 2°56.018 20.4458 0.009708 0.054049 -3.020363
2011-07-15 06:50:19 51°13.635 2°56.018 20.4487 0.009708 0.05405 -3.020363
2011-07-15 06:51:18 51°13.634 2°56.018 20.4526 0.009708 0.054051 -3.020363
2011-07-15 06:52:19 51°13.635 2°56.018 20.456 0.009606 0.053536 -3.020363
2011-07-15 06:53:19 51°13.636 2°56.019 20.4581 0.009606 0.053538 -3.020363
2011-07-15 06:54:19 51°13.636 2°56.02 20.4571 0.009606 0.053538 -3.020363
2011-07-15 06:55:19 51°13.637 2°56.019 20.4543 0.009606 0.053539 -3.020363
2011-07-15 06:56:19 51°13.637 2°56.019 20.4527 0.009606 0.053541 -3.020363
2011-07-15 06:57:19 51°13.637 2°56.02 20.4545 0.009606 0.053541 -3.020363
2011-07-15 06:58:19 51°13.636 2°56.02 20.4619 0.009708 0.054058 -3.020363
2011-07-15 06:59:19 51°13.636 2°56.019 20.4627 0.009606 0.053543 -3.020363
2011-07-15 07:00:19 51°13.636 2°56.019 20.4689 0.009606 0.053544 -3.020363
2011-07-15 07:01:19 51°13.636 2°56.019 20.4614 0.009606 0.053545 -3.020363
2011-07-15 07:02:19 51°13.636 2°56.018 20.4612 0.009606 0.053546 -3.020363
2011-07-15 07:03:19 51°13.637 2°56.017 20.4619 0.009606 0.053546 -3.020363
2011-07-15 07:04:18 51°13.634 2°56.029 20.4634 0.009606 0.053547 -3.020363
2011-07-15 07:05:19 51°13.635 2°56.027 20.4653 0.009606 0.053548 -3.020363
2011-07-15 07:06:18 51°13.633 2°56.031 20.468 0.009606 0.053548 -3.020363
2011-07-15 07:07:19 51°13.635 2°56.028 20.4693 0.009606 0.053549 -3.020363
2011-07-15 07:08:18 51°13.635 2°56.028 20.4718 0.009606 0.05355 -3.020363
2011-07-15 07:09:18 51°13.636 2°56.022 20.4689 0.009606 0.05355 -3.020363
2011-07-15 07:10:18 51°13.641 2°55.996 20.4731 0.009606 0.053551 -3.020363
2011-07-15 07:11:18 51°13.64 2°56.008 20.4732 0.009606 0.053552 -3.020363
2011-07-15 07:12:18 51°13.638 2°56.017 20.4731 0.009606 0.053553 -3.020363
2011-07-15 07:13:18 51°13.637 2°56.017 20.4788 0.009606 0.053553 -3.020363
2011-07-15 07:14:18 51°13.638 2°56.018 20.4784 0.009606 0.053554 -3.020363
2011-07-15 07:15:19 51°13.637 2°56.017 20.4835 0.009606 0.053554 -3.020363
2011-07-15 07:16:18 51°13.636 2°56.016 20.4849 0.009606 0.053555 -3.020363
2011-07-15 07:17:18 51°13.636 2°56.017 20.4894 0.009606 0.053555 -3.020363
2011-07-15 07:18:18 51°13.637 2°56.016 20.4914 0.009606 0.053557 -3.020363
2011-07-15 07:19:18 51°13.637 2°56.017 20.4824 0.009606 0.053557 -3.020363
2011-07-15 07:20:18 51°13.637 2°56.017 20.4901 0.009606 0.053557 -3.020363
2011-07-15 07:21:18 51°13.637 2°56.017 20.4967 0.009606 0.053558 -3.020363
2011-07-15 07:22:18 51°13.637 2°56.018 20.4884 0.009606 0.053558 -3.020363
2011-07-15 07:23:18 51°13.637 2°56.018 20.4886 0.009606 0.053558 -3.020363
2011-07-15 07:24:18 51°13.636 2°56.018 20.4903 0.009606 0.053559 -3.020363
2011-07-15 07:25:18 51°13.636 2°56.017 20.4975 0.009606 0.053559 -3.020363
2011-07-15 07:26:18 51°13.636 2°56.017 20.4983 0.009606 0.053559 -3.020363
2011-07-15 07:27:18 51°13.636 2°56.016 20.5015 0.009606 0.05356 -3.020363
2011-07-15 07:28:18 51°13.636 2°56.016 20.5081 0.009606 0.05356 -3.020363
2011-07-15 07:29:18 51°13.636 2°56.016 20.5089 0.009606 0.05356 -3.020363
2011-07-15 07:30:18 51°13.637 2°56.017 20.5162 0.009606 0.05356 -3.020363
2011-07-15 07:31:19 51°13.636 2°56.018 20.5214 0.009606 0.05356 -3.020363
2011-07-15 07:32:18 51°13.636 2°56.018 20.5263 0.009606 0.05356 -3.020363
2011-07-15 07:33:18 51°13.636 2°56.018 20.5261 0.009606 0.05356 -3.020363
2011-07-15 07:34:18 51°13.636 2°56.018 20.5309 0.009606 0.05356 -3.020363
2011-07-15 07:35:18 51°13.636 2°56.018 20.5371 0.009606 0.05356 -3.020363
2011-07-15 07:36:18 51°13.636 2°56.017 20.5402 0.009606 0.05356 -3.020363
2011-07-15 07:37:17 51°13.637 2°56.017 20.5494 0.009606 0.05356 -3.020363
2011-07-15 07:38:15 51°13.637 2°56.017 20.5547 0.009606 0.05356 -3.020363
2011-07-15 07:39:15 51°13.637 2°56.018 20.5623 0.009606 0.05356 -3.020363
2011-07-15 07:40:15 51°13.637 2°56.018 20.569 0.009606 0.05356 -3.020363
2011-07-15 07:41:15 51°13.637 2°56.018 20.5703 0.009606 0.05356 -3.020363
2011-07-15 07:42:15 51°13.637 2°56.018 20.5786 0.009606 0.05356 -3.020363
2011-07-15 07:43:15 51°13.636 2°56.018 20.5858 0.009606 0.05356 -3.020363
2011-07-15 07:44:15 51°13.636 2°56.018 20.5813 0.009606 0.053559 -3.020363
2011-07-15 07:45:15 51°13.636 2°56.018 20.5939 0.009606 0.053559 -3.020363
2011-07-15 07:46:15 51°13.636 2°56.017 20.6035 0.009606 0.053558 -3.020363
2011-07-15 07:47:15 51°13.636 2°56.016 20.6093 0.009606 0.053557 -3.020363
2011-07-15 07:48:15 51°13.636 2°56.016 20.6234 0.009606 0.053557 -3.020363
2011-07-15 07:49:15 51°13.636 2°56.016 20.6333 0.009606 0.053555 -3.020363
2011-07-15 07:50:17 51°13.636 2°56.016 20.6408 0.009606 0.053554 -3.020363
2011-07-15 07:51:16 51°13.636 2°56.017 20.6443 0.009606 0.053553 -3.020363
2011-07-15 07:52:18 51°13.636 2°56.017 20.6519 0.009606 0.053552 -3.020363
2011-07-15 07:53:16 51°13.637 2°56.017 20.6465 0.009606 0.053551 -3.020363
2011-07-15 07:54:16 51°13.637 2°56.018 20.6458 0.009606 0.053549 -3.020363
2011-07-15 07:55:15 51°13.637 2°56.018 20.6601 0.009606 0.053547 -3.020363
2011-07-15 07:56:15 51°13.637 2°56.018 20.6598 0.009606 0.053546 -3.020363
2011-07-15 07:57:15 51°13.637 2°56.018 20.6967 0.009606 0.053543 -3.020363
2011-07-15 07:58:15 51°13.636 2°56.018 20.6941 0.009606 0.053541 -3.020363
2011-07-15 07:59:15 51°13.636 2°56.018 20.6949 0.009606 0.05354 -3.020363
2011-07-15 08:00:15 51°13.635 2°56.018 20.7023 0.009606 0.053539 -3.020363
2011-07-15 08:01:18 51°13.635 2°56.017 20.7072 0.009606 0.053538 -3.020363
2011-07-15 08:02:17 51°13.635 2°56.017 20.72 0.009606 0.053535 -3.020363
2011-07-15 08:03:16 51°13.635 2°56.017 20.7252 0.009606 0.053532 -3.020363
2011-07-15 08:04:18 51°13.635 2°56.017 20.7356 0.009606 0.053529 -3.020363
2011-07-15 08:05:17 51°13.633 2°56.016 20.7427 0.009606 0.053527 -3.020363
2011-07-15 08:06:15 51°13.633 2°56.016 20.7544 0.009606 0.053524 -3.020363
2011-07-15 08:07:15 51°13.634 2°56.017 20.7618 0.009606 0.053521 -3.020363
2011-07-15 08:08:15 51°13.635 2°56.017 20.7682 0.009606 0.053517 -3.020363
2011-07-15 08:09:15 51°13.635 2°56.018 20.7742 0.009606 0.053508 -3.020363
2011-07-15 08:10:15 51°13.635 2°56.017 20.7784 0.009606 0.0535 -3.020363
2011-07-15 08:11:16 51°13.636 2°56.018 20.7874 0.009606 0.05349 -3.020363
2011-07-15 08:12:15 51°13.636 2°56.017 20.7971 0.009606 0.053479 -3.020363
2011-07-15 08:13:15 51°13.636 2°56.018 20.8322 0.009606 0.053467 -3.020363
2011-07-15 08:14:15 51°13.636 2°56.018 20.8287 0.009606 0.053454 -3.020363
2011-07-15 08:15:15 51°13.635 2°56.018 20.8157 0.009606 0.053438 -3.020363
2011-07-15 08:16:15 51°13.637 2°56.014 20.8369 0.009606 0.053421 -3.020363
2011-07-15 08:17:15 51°13.638 2°56.015 20.843 0.009606 0.053401 -3.020363
2011-07-15 08:18:15 51°13.638 2°56.015 20.8395 0.009606 0.053381 -3.020363
2011-07-15 08:19:15 51°13.638 2°56.016 20.8456 0.009606 0.053364 -3.020363
2011-07-15 08:20:15 51°13.637 2°56.016 20.8665 0.009606 0.05335 -3.020363
2011-07-15 08:21:15 51°13.639 2°56.007 20.8409 0.009606 0.053337 -3.020363
2011-07-15 08:22:18 51°13.66 2°55.934 20.8816 0.009606 0.053327 -3.020363
2011-07-15 08:23:18 51°13.689 2°55.836 20.9181 0.009708 0.053829 -3.020363
2011-07-15 08:24:18 51°13.731 2°55.74 20.8956 0.009708 0.053821 -3.020363
2011-07-15 08:25:18 51°13.794 2°55.663 20.9098 0.009708 0.053813 -3.020363
2011-07-15 08:26:18 51°13.881 2°55.634 20.9229 0.009708 0.053807 -3.020363
2011-07-15 08:27:18 51°13.945 2°55.645 20.9355 0.009708 0.053801 -3.020363
2011-07-15 08:28:18 51°13.95 2°55.629 20.8564 0.009708 0.053796 -3.020363
2011-07-15 08:29:17 51°13.979 2°55.56 20.9285 0.009708 0.053791 -3.020363
2011-07-15 08:30:18 51°14.068 2°55.482 20.9185 0.009708 0.053785 -3.020363
2011-07-15 08:31:18 51°14.176 2°55.387 20.9482 0.009708 0.05378 -3.020363
2011-07-15 08:32:18 51°14.306 2°55.267 20.9265 0.009708 0.053774 -3.020363
2011-07-15 08:33:18 51°14.463 2°55.11 20.8931 0.009708 0.053769 -3.020363
2011-07-15 08:34:16 51°14.627 2°54.927 20.877 0.009708 0.053764 -3.020363
2011-07-15 08:35:16 51°14.803 2°54.751 20.8677 0.009708 0.053761 -3.020363
2011-07-15 08:36:17 51°14.98 2°54.575 20.878 0.009708 0.053757 -3.020363
2011-07-15 08:37:15 51°15.13 2°54.365 20.8488 0.009708 0.053752 -3.020363
2011-07-15 08:38:16 51°15.288 2°54.144 20.886 0.009708 0.053749 -3.020363
2011-07-15 08:39:15 51°15.446 2°53.94 20.8799 0.009708 0.053746 -3.020363
2011-07-15 08:40:15 51°15.613 2°53.749 20.9091 0.009708 0.053743 -3.020363
2011-07-15 08:41:15 51°15.783 2°53.555 20.9154 0.009708 0.053741 -3.020363
2011-07-15 08:42:15 51°15.958 2°53.388 20.9361 0.009708 0.053738 -3.020363
2011-07-15 08:43:15 51°16.135 2°53.238 20.9541 0.009708 0.053737 -3.020363
2011-07-15 08:44:15 51°16.313 2°53.087 20.965 0.009708 0.053735 -3.020363
2011-07-15 08:45:15 51°16.496 2°52.948 20.9604 0.009708 0.053733 -3.020363
2011-07-15 08:46:15 51°16.681 2°52.822 20.9923 0.009708 0.053731 -3.020363
2011-07-15 08:47:15 51°16.864 2°52.702 21.0062 0.009708 0.05373 -3.020363
2011-07-15 08:48:15 51°17.041 2°52.568 21.0316 0.009708 0.053728 -3.020363
2011-07-15 08:49:15 51°17.208 2°52.41 21.0345 0.009708 0.053727 -3.020363
2011-07-15 08:50:15 51°17.362 2°52.202 21.0335 0.009708 0.053726 -3.020363
2011-07-15 08:51:15 51°17.521 2°52.001 21.0502 0.009708 0.053727 -3.020363
2011-07-15 08:52:15 51°17.676 2°51.797 21.0566 0.009708 0.053724 -3.020363
2011-07-15 08:53:15 51°17.832 2°51.601 21.0466 0.009708 0.05372 -3.020363
2011-07-15 08:54:15 51°17.985 2°51.388 21.0643 0.009708 0.053724 -3.020363
2011-07-15 08:55:15 51°18.136 2°51.163 21.0853 0.009708 0.053722 -3.020363
2011-07-15 08:56:15 51°18.292 2°50.948 21.1017 0.009708 0.053719 -3.020363
2011-07-15 08:57:15 51°18.446 2°50.728 21.1599 0.009708 0.053714 -3.020363
2011-07-15 08:58:15 51°18.597 2°50.501 21.1574 0.009708 0.053719 -3.020363
2011-07-15 08:59:15 51°18.749 2°50.271 21.1649 0.009708 0.053719 -3.020363
2011-07-15 09:00:15 51°18.906 2°50.06 21.1685 0.009708 0.053715 -3.020363
2011-07-15 09:01:15 51°19.061 2°49.839 21.1741 0.009708 0.053718 -3.020363
2011-07-15 09:02:15 51°19.218 2°49.634 21.1776 0.009708 0.053716 -3.020363
2011-07-15 09:03:15 51°19.372 2°49.411 21.1841 0.009708 0.05372 -3.020363
2011-07-15 09:04:15 51°19.529 2°49.192 21.1843 0.009708 0.053717 -3.020363
2011-07-15 09:05:15 51°19.686 2°48.964 21.1956 0.009708 0.053718 -3.020363
2011-07-15 09:06:15 51°19.843 2°48.74 21.1981 0.009708 0.053719 -3.020363
2011-07-15 09:07:15 51°19.998 2°48.515 21.2002 0.009708 0.053717 -3.020363
2011-07-15 09:08:15 51°20.152 2°48.284 21.2076 0.009708 0.053719 -3.020363
2011-07-15 09:09:15 51°20.307 2°48.049 21.2141 0.009708 0.053718 -3.020363
2011-07-15 09:10:15 51°20.465 2°47.818 21.2218 0.009708 0.053722 -3.020363
2011-07-15 09:11:15 51°20.622 2°47.591 21.2266 0.009708 0.053721 -3.020363
2011-07-15 09:12:15 51°20.779 2°47.373 21.238 0.009708 0.053724 -3.020363
2011-07-15 09:13:15 51°20.934 2°47.155 21.2491 0.009708 0.053725 -3.020363
2011-07-15 09:14:15 51°21.086 2°46.925 21.255 0.009708 0.053727 -3.020363
2011-07-15 09:15:15 51°21.246 2°46.711 21.2585 0.009708 0.053727 -3.020363
2011-07-15 09:16:15 51°21.401 2°46.493 21.2711 0.009606 0.053218 -3.020363
2011-07-15 09:17:15 51°21.544 2°46.263 21.2821 0.009606 0.05322 -3.020363
2011-07-15 09:18:15 51°21.672 2°46.003 21.2929 0.009606 0.053221 -3.020363
2011-07-15 09:19:15 51°21.778 2°45.713 21.3043 0.009606 0.053223 -3.020363
2011-07-15 09:20:15 51°21.889 2°45.429 21.3131 0.009606 0.053225 -3.020363
2011-07-15 09:21:15 51°21.999 2°45.146 21.3229 0.009606 0.053228 -3.020363
2011-07-15 09:22:15 51°22.111 2°44.867 21.3328 0.009606 0.053228 -3.020363
2011-07-15 09:23:15 51°22.224 2°44.584 21.343 0.009606 0.053231 -3.020363
2011-07-15 09:24:15 51°22.335 2°44.295 21.3525 0.009606 0.053234 -3.020363
2011-07-15 09:25:15 51°22.449 2°44.005 21.3633 0.009606 0.053238 -3.020363
2011-07-15 09:26:15 51°22.559 2°43.714 21.372 0.009606 0.05324 -3.020363
2011-07-15 09:27:15 51°22.651 2°43.473 21.3825 0.009606 0.053243 -3.020363
2011-07-15 09:28:15 51°22.719 2°43.381 21.3907 0.009606 0.053246 -3.020363
2011-07-15 09:29:15 51°22.725 2°43.348 21.4047 0.009606 0.053248 -3.020363
2011-07-15 09:30:18 51°22.709 2°43.324 21.4093 0.009606 0.05325 -3.020363
2011-07-15 09:31:17 51°22.71 2°43.347 21.511 0.009606 0.053241 -3.020363
2011-07-15 09:32:16 51°22.702 2°43.371 21.5056 0.009606 0.053246 -3.020363
2011-07-15 09:33:15 51°22.679 2°43.388 21.5341 0.009606 0.053246 -3.020363
2011-07-15 09:34:15 51°22.659 2°43.422 21.5383 0.009606 0.053249 -3.020363
2011-07-15 09:35:15 51°22.694 2°43.443 21.5533 0.009606 0.053248 -3.020363
2011-07-15 09:36:15 51°22.748 2°43.386 21.5982 0.009606 0.053249 -3.020363
2011-07-15 09:37:16 51°22.74 2°43.368 21.6259 0.009606 0.053244 -3.020363
2011-07-15 09:38:18 51°22.725 2°43.359 21.6438 0.009606 0.053248 -3.020363
2011-07-15 09:39:17 51°22.71 2°43.35 21.6634 0.009606 0.053248 -3.020363
2011-07-15 09:40:18 51°22.678 2°43.354 21.6776 0.009606 0.053249 -3.020363
2011-07-15 09:41:16 51°22.654 2°43.346 21.7003 0.009606 0.053249 -3.020363
2011-07-15 09:42:15 51°22.658 2°43.327 21.7152 0.009606 0.053249 -3.020363
2011-07-15 09:43:15 51°22.657 2°43.305 21.7374 0.009606 0.053252 -3.020363
2011-07-15 09:44:15 51°22.652 2°43.287 21.7587 0.009606 0.053255 -3.020363
2011-07-15 09:45:15 51°22.647 2°43.266 21.7765 0.009606 0.053256 -3.020363
2011-07-15 09:46:15 51°22.663 2°43.238 21.7989 0.009606 0.053259 -3.020363
2011-07-15 09:47:15 51°22.679 2°43.226 21.8187 0.009606 0.053261 -3.020363
2011-07-15 09:48:15 51°22.687 2°43.216 21.84 0.009606 0.053264 -3.020363
2011-07-15 09:49:15 51°22.695 2°43.215 21.8601 0.009606 0.053265 -3.020363
2011-07-15 09:50:15 51°22.698 2°43.228 21.8814 0.009606 0.053267 -3.020363
2011-07-15 09:51:15 51°22.693 2°43.241 21.9051 0.009606 0.053267 -3.020363
2011-07-15 09:52:15 51°22.686 2°43.251 21.9266 0.009606 0.053267 -3.020363
2011-07-15 09:53:15 51°22.679 2°43.259 21.9468 0.009606 0.053267 -3.020363
2011-07-15 09:54:15 51°22.671 2°43.257 21.9691 0.009606 0.053267 -3.020363
2011-07-15 09:55:15 51°22.66 2°43.234 21.9888 0.009606 0.053266 -3.020363
2011-07-15 09:56:15 51°22.656 2°43.233 22.0132 0.009606 0.053265 -3.020363
2011-07-15 09:57:15 51°22.671 2°43.233 22.0383 0.009606 0.053264 -3.020363
2011-07-15 09:58:15 51°22.68 2°43.213 22.0619 0.009606 0.053262 -3.020363
2011-07-15 09:59:15 51°22.68 2°43.196 22.0764 0.009606 0.053262 -3.020363
2011-07-15 10:00:15 51°22.677 2°43.183 22.1068 0.009606 0.053259 -3.020363
2011-07-15 10:01:15 51°22.673 2°43.176 22.1305 0.009606 0.05326 -3.020363
2011-07-15 10:02:15 51°22.664 2°43.171 22.147 0.009606 0.053256 -3.020363
2011-07-15 10:03:15 51°22.657 2°43.165 22.1751 0.009606 0.05326 -3.020363
2011-07-15 10:04:15 51°22.683 2°43.145 22.1894 0.009606 0.053256 -3.020363
2011-07-15 10:05:15 51°22.711 2°43.23 22.2232 0.009606 0.053257 -3.020363
2011-07-15 10:06:15 51°22.66 2°43.303 22.249 0.009606 0.053263 -3.020363
2011-07-15 10:07:15 51°22.615 2°43.333 22.2773 0.009606 0.053265 -3.020363
2011-07-15 10:08:15 51°22.58 2°43.345 22.3121 0.009606 0.053268 -3.020363
2011-07-15 10:09:15 51°22.551 2°43.35 21.8245 0.009606 0.053267 -3.020363
2011-07-15 10:10:15 51°22.526 2°43.353 21.9875 0.009606 0.053274 -3.020363
2011-07-15 10:11:15 51°22.503 2°43.355 21.8852 0.009606 0.053276 -3.020363
2011-07-15 10:12:15 51°22.463 2°43.329 21.9734 0.009606 0.053278 -3.020363
2011-07-15 10:13:15 51°22.452 2°43.245 21.9641 0.009606 0.05328 -3.020363
2011-07-15 10:14:15 51°22.493 2°43.215 21.9785 0.009606 0.053282 -3.020363
2011-07-15 10:15:15 51°22.55 2°43.226 21.9714 0.009606 0.053285 -3.020363
2011-07-15 10:16:15 51°22.613 2°43.219 21.9667 0.009606 0.053287 -3.020363
2011-07-15 10:17:15 51°22.655 2°43.208 22.0544 0.009606 0.053287 -3.020363
2011-07-15 10:18:15 51°22.673 2°43.199 22.0269 0.009606 0.053289 -3.020363
2011-07-15 10:19:15 51°22.678 2°43.191 22.0198 0.009606 0.053289 -3.020363
2011-07-15 10:20:15 51°22.675 2°43.191 22.0466 0.009606 0.05329 -3.020363
2011-07-15 10:21:15 51°22.67 2°43.198 22.0688 0.009503 0.05278 -3.020363
2011-07-15 10:22:15 51°22.686 2°43.156 22.0978 0.009606 0.053292 -3.020363
2011-07-15 10:23:15 51°22.653 2°43.086 22.0664 0.009606 0.053296 -3.020363
2011-07-15 10:24:15 51°22.604 2°43.103 22.121 0.009503 0.052785 -3.020363
2011-07-15 10:25:15 51°22.559 2°43.167 22.1667 0.009503 0.05278 -3.020363
2011-07-15 10:26:15 51°22.519 2°43.233 22.1662 0.009503 0.052785 -3.020363
2011-07-15 10:27:15 51°22.492 2°43.287 22.1419 0.009503 0.052791 -3.020363
2011-07-15 10:28:15 51°22.49 2°43.348 22.1663 0.009503 0.052795 -3.020363
2011-07-15 10:29:15 51°22.512 2°43.383 22.1671 0.009503 0.052799 -3.020363
2011-07-15 10:30:15 51°22.549 2°43.37 22.2122 0.009503 0.052801 -3.020363
2011-07-15 10:31:15 51°22.592 2°43.324 22.2 0.009503 0.052801 -3.020363
2011-07-15 10:32:15 51°22.611 2°43.299 22.2241 0.009503 0.052802 -3.020363
2011-07-15 10:33:15 51°22.622 2°43.284 22.2164 0.009503 0.052803 -3.020363
2011-07-15 10:34:15 51°22.628 2°43.278 22.2425 0.009503 0.052804 -3.020363
2011-07-15 10:35:15 51°22.632 2°43.28 22.2509 0.009503 0.052805 -3.020363
2011-07-15 10:36:15 51°22.637 2°43.29 22.2597 0.009503 0.052806 -3.020363
2011-07-15 10:37:15 51°22.639 2°43.303 22.278 0.009503 0.052807 -3.020363
2011-07-15 10:38:15 51°22.633 2°43.323 22.2926 0.009503 0.052809 -3.020363
2011-07-15 10:39:15 51°22.619 2°43.341 22.304 0.009503 0.052811 -3.020363
2011-07-15 10:40:15 51°22.598 2°43.353 22.3072 0.009503 0.052812 -3.020363
2011-07-15 10:41:15 51°22.581 2°43.363 22.3207 0.009503 0.052814 -3.020363
2011-07-15 10:42:15 51°22.57 2°43.373 22.3376 0.009503 0.052815 -3.020363
2011-07-15 10:43:15 51°22.563 2°43.385 22.3459 0.009503 0.052816 -3.020363
2011-07-15 10:44:15 51°22.562 2°43.404 22.3631 0.009503 0.052817 -3.020363
2011-07-15 10:45:15 51°22.565 2°43.425 22.3681 0.009503 0.052816 -3.020363
2011-07-15 10:46:15 51°22.568 2°43.446 22.3678 0.009503 0.052815 -3.020363
2011-07-15 10:47:15 51°22.573 2°43.465 22.3801 0.009503 0.052814 -3.020363
2011-07-15 10:48:15 51°22.578 2°43.481 22.3898 0.009503 0.052813 -3.020363
2011-07-15 10:49:15 51°22.589 2°43.494 22.4012 0.009503 0.052813 -3.020363
2011-07-15 10:50:15 51°22.602 2°43.503 22.4073 0.009503 0.052813 -3.020363
2011-07-15 10:51:15 51°22.615 2°43.51 22.4181 0.009503 0.052813 -3.020363
2011-07-15 10:52:15 51°22.625 2°43.523 22.4236 0.009503 0.052813 -3.020363
2011-07-15 10:53:15 51°22.632 2°43.542 22.4342 0.009503 0.052814 -3.020363
2011-07-15 10:54:15 51°22.638 2°43.565 22.4411 0.009503 0.052815 -3.020363
2011-07-15 10:55:15 51°22.644 2°43.591 22.4469 0.009503 0.052815 -3.020363
2011-07-15 10:56:15 51°22.647 2°43.617 22.4541 0.0094 0.052305 -3.020363
2011-07-15 10:57:15 51°22.651 2°43.644 22.4629 0.009503 0.052818 -3.020363
2011-07-15 10:58:15 51°22.662 2°43.665 22.4709 0.009503 0.052818 -3.020363
2011-07-15 10:59:15 51°22.677 2°43.679 22.4776 0.009503 0.052819 -3.020363
2011-07-15 11:00:15 51°22.698 2°43.658 22.4845 0.009503 0.05282 -3.020363
2011-07-15 11:01:15 51°22.712 2°43.649 22.4904 0.009503 0.052822 -3.020363
2011-07-15 11:02:15 51°22.722 2°43.655 22.498 0.009503 0.052819 -3.020363
2011-07-15 11:03:15 51°22.733 2°43.67 22.5054 0.009503 0.052822 -3.020363
2011-07-15 11:04:15 51°22.744 2°43.693 22.5113 0.009503 0.052822 -3.020363
2011-07-15 11:05:15 51°22.752 2°43.722 22.516 0.009503 0.052823 -3.020363
2011-07-15 11:06:15 51°22.758 2°43.75 22.5224 0.009503 0.052824 -3.020363
2011-07-15 11:07:15 51°22.765 2°43.781 22.5284 0.009503 0.052824 -3.020363
2011-07-15 11:08:15 51°22.77 2°43.812 22.5366 0.009503 0.052825 -3.020363
2011-07-15 11:09:15 51°22.775 2°43.843 22.5408 0.009503 0.052826 -3.020363
2011-07-15 11:10:15 51°22.804 2°43.872 22.5458 0.009503 0.052826 -3.020363
2011-07-15 11:11:15 51°22.85 2°43.888 22.5551 0.009503 0.052827 -3.020363
2011-07-15 11:12:15 51°22.896 2°43.875 22.5593 0.009503 0.052828 -3.020363
2011-07-15 11:13:15 51°22.916 2°43.827 22.5685 0.009503 0.052829 -3.020363
2011-07-15 11:14:15 51°22.896 2°43.782 22.5724 0.009503 0.052828 -3.020363
2011-07-15 11:15:15 51°22.863 2°43.772 22.5768 0.009503 0.05283 -3.020363
2011-07-15 11:16:15 51°22.838 2°43.789 22.5849 0.009503 0.05283 -3.020363
2011-07-15 11:17:15 51°22.822 2°43.818 22.5892 0.009503 0.05283 -3.020363
2011-07-15 11:18:15 51°22.812 2°43.848 22.5988 0.009503 0.05283 -3.020363
2011-07-15 11:19:15 51°22.808 2°43.878 22.5981 0.009503 0.05283 -3.020363
2011-07-15 11:20:15 51°22.803 2°43.908 22.6067 0.009503 0.05283 -3.020363
2011-07-15 11:21:15 51°22.784 2°43.938 22.6123 0.009503 0.05283 -3.020363
2011-07-15 11:22:15 51°22.753 2°43.973 22.616 0.0094 0.052318 -3.020363
2011-07-15 11:23:15 51°22.715 2°44.018 22.6212 0.009503 0.052829 -3.020363
2011-07-15 11:24:15 51°22.681 2°44.074 22.63 0.009503 0.052828 -3.020363
2011-07-15 11:25:15 51°22.656 2°44.129 22.6363 -999 -999 -2.532827
2011-07-15 11:26:15 51°22.635 2°44.182 22.643 0.009503 0.052828 -3.020363
2011-07-15 11:27:15 51°22.617 2°44.267 22.6527 0.009503 0.05283 -3.020363
2011-07-15 11:28:15 51°22.653 2°44.369 22.6501 0.009503 0.052831 -3.020363
2011-07-15 11:29:15 51°22.693 2°44.42 22.6603 0.009503 0.05283 -3.020363
2011-07-15 11:30:15 51°22.738 2°44.454 22.6617 0.009503 0.052831 -3.020363
2011-07-15 11:31:15 51°22.785 2°44.467 22.6828 0.009503 0.05283 -3.020363
2011-07-15 11:32:15 51°22.813 2°44.437 22.6794 0.0094 0.05232 -3.020363
2011-07-15 11:33:15 51°22.795 2°44.354 22.6766 0.0094 0.05232 -3.020363
2011-07-15 11:34:15 51°22.763 2°44.213 22.689 0.009503 0.052831 -3.020363
2011-07-15 11:35:15 51°22.747 2°44.071 22.6947 0.0094 0.052321 -3.020363
2011-07-15 11:36:15 51°22.754 2°43.96 22.7018 0.0094 0.052321 -3.020363
2011-07-15 11:37:15 51°22.774 2°43.86 22.7051 0.0094 0.052325 -3.020363
2011-07-15 11:38:15 51°22.792 2°43.759 22.7065 0.0094 0.052326 -3.020363
2011-07-15 11:39:15 51°22.809 2°43.673 22.711 0.009503 0.052838 -3.020363
2011-07-15 11:40:15 51°22.818 2°43.633 22.7159 0.0094 0.052326 -3.020363
2011-07-15 11:41:15 51°22.827 2°43.62 22.7225 0.0094 0.052325 -3.020363
2011-07-15 11:42:15 51°22.838 2°43.623 22.7221 0.0094 0.052323 -3.020363
2011-07-15 11:43:15 51°22.848 2°43.639 22.7296 0.0094 0.052323 -3.020363
2011-07-15 11:44:16 51°22.866 2°43.684 22.7339 0.0094 0.052321 -3.020363
2011-07-15 11:45:16 51°22.881 2°43.725 22.7348 0.0094 0.05232 -3.020363
2011-07-15 11:46:16 51°22.891 2°43.767 22.7476 0.009503 0.052831 -3.020363
2011-07-15 11:47:16 51°22.902 2°43.811 22.7413 0.0094 0.052318 -3.020363
2011-07-15 11:48:15 51°22.913 2°43.854 22.7581 0.0094 0.052317 -3.020363
2011-07-15 11:49:15 51°22.922 2°43.899 22.7554 0.0094 0.052316 -3.020363
2011-07-15 11:50:15 51°22.932 2°43.945 22.7647 0.0094 0.052315 -3.020363
2011-07-15 11:51:15 51°22.939 2°43.989 22.7704 0.0094 0.052315 -3.020363
2011-07-15 11:52:15 51°22.944 2°44.032 22.7703 0.0094 0.052315 -3.020363
2011-07-15 11:53:15 51°22.932 2°44.087 22.7834 0.0094 0.052315 -3.020363
2011-07-15 11:54:15 51°22.882 2°44.193 22.7927 0.0094 0.052318 -3.020363
2011-07-15 11:55:14 51°22.772 2°44.355 22.7869 0.0094 0.052317 -3.020363
2011-07-15 11:56:15 51°22.63 2°44.546 22.8011 0.0094 0.052319 -3.020363
2011-07-15 11:57:14 51°22.485 2°44.744 22.8078 0.0094 0.05232 -3.020363
2011-07-15 11:58:14 51°22.339 2°44.961 22.8144 0.0094 0.05232 -3.020363
2011-07-15 11:59:14 51°22.194 2°45.178 22.8139 0.009503 0.052831 -3.020363
2011-07-15 12:00:14 51°22.049 2°45.398 22.8386 0.009503 0.052823 -3.020363
2011-07-15 12:01:14 51°21.9 2°45.614 22.8333 0.009503 0.052839 -3.020363
2011-07-15 12:02:14 51°21.755 2°45.835 22.8513 0.009503 0.052836 -3.020363
2011-07-15 12:03:15 51°21.61 2°46.06 22.8516 0.009503 0.052831 -3.020363
2011-07-15 12:04:14 51°21.467 2°46.273 22.8474 0.009503 0.052838 -3.020363
2011-07-15 12:05:15 51°21.323 2°46.499 22.8371 0.009503 0.052838 -3.020363
2011-07-15 12:06:14 51°21.184 2°46.72 22.8372 0.009503 0.052841 -3.020363
2011-07-15 12:07:15 51°21.042 2°46.95 22.8904 0.009503 0.052835 -3.020363
2011-07-15 12:08:14 51°20.897 2°47.166 22.8703 0.009503 0.052833 -3.020363
2011-07-15 12:09:14 51°20.75 2°47.39 22.8875 0.009503 0.052838 -3.020363
2011-07-15 12:10:14 51°20.601 2°47.612 22.8856 0.009503 0.052841 -3.020363
2011-07-15 12:11:14 51°20.459 2°47.842 22.9021 0.009503 0.052839 -3.020363
2011-07-15 12:12:15 51°20.316 2°48.061 22.8866 0.009503 0.052834 -3.020363
2011-07-15 12:13:14 51°20.177 2°48.269 22.9 0.009503 0.052834 -3.020363
2011-07-15 12:14:15 51°20.033 2°48.488 22.9405 0.009503 0.052837 -3.020363
2011-07-15 12:15:14 51°19.895 2°48.702 22.8977 0.009503 0.052833 -3.020363
2011-07-15 12:16:15 51°19.752 2°48.924 22.9071 0.009503 0.052835 -3.020363
2011-07-15 12:17:14 51°19.614 2°49.141 22.9509 0.009503 0.052836 -3.020363
2011-07-15 12:18:14 51°19.469 2°49.357 22.9187 0.009503 0.052837 -3.020363
2011-07-15 12:19:14 51°19.324 2°49.576 22.957 0.009503 0.052836 -3.020363
2011-07-15 12:20:14 51°19.179 2°49.797 22.951 0.009503 0.052835 -3.020363
2011-07-15 12:21:15 51°19.031 2°50.02 22.9633 0.009503 0.052837 -3.020363
2011-07-15 12:22:14 51°18.887 2°50.237 22.9855 0.009503 0.052824 -3.020363
2011-07-15 12:23:15 51°18.738 2°50.458 22.9797 0.009503 0.052829 -3.020363
2011-07-15 12:24:14 51°18.595 2°50.673 22.9492 0.009503 0.052826 -3.020363
2011-07-15 12:25:14 51°18.454 2°50.897 22.9764 0.009503 0.052822 -3.020363
2011-07-15 12:26:14 51°18.312 2°51.12 22.9916 0.009503 0.052823 -3.020363
2011-07-15 12:27:14 51°18.171 2°51.34 23.0029 0.009503 0.052824 -3.020363
2011-07-15 12:28:14 51°18.027 2°51.55 23.0165 0.009503 0.052822 -3.020363
2011-07-15 12:29:14 51°17.881 2°51.752 23.0188 0.009503 0.052822 -3.020363
2011-07-15 12:30:15 51°17.732 2°51.96 23.0506 0.009503 0.052826 -3.020363
2011-07-15 12:31:14 51°17.595 2°52.179 23.0115 0.009503 0.052812 -3.020363
2011-07-15 12:32:15 51°17.431 2°52.34 23.0319 0.009503 0.052812 -3.020363
2011-07-15 12:33:14 51°17.262 2°52.464 23.025 0.009503 0.052814 -3.020363
2011-07-15 12:34:14 51°17.093 2°52.595 23.0698 0.009503 0.052812 -3.020363
2011-07-15 12:35:14 51°16.924 2°52.728 23.0452 0.009503 0.052811 -3.020363
2011-07-15 12:36:14 51°16.757 2°52.876 23.0522 0.009503 0.05281 -3.020363
2011-07-15 12:37:14 51°16.59 2°53.026 23.052 0.009503 0.052808 -3.020363
2011-07-15 12:38:14 51°16.423 2°53.169 23.0584 0.009503 0.052806 -3.020363
2011-07-15 12:39:15 51°16.251 2°53.288 23.0677 0.009503 0.052804 -3.020363
2011-07-15 12:40:14 51°16.085 2°53.408 23.0782 0.009503 0.052803 -3.020363
2011-07-15 12:41:15 51°15.91 2°53.521 23.0931 0.009503 0.052801 -3.020363
2011-07-15 12:42:14 51°15.738 2°53.606 23.0917 0.009503 0.052799 -3.020363
2011-07-15 12:43:14 51°15.566 2°53.722 23.0952 0.009503 0.052798 -3.020363
2011-07-15 12:44:14 51°15.401 2°53.885 23.1102 0.009503 0.052796 -3.020363
2011-07-15 12:45:14 51°15.261 2°54.108 23.106 0.009503 0.052794 -3.020363
2011-07-15 12:46:14 51°15.119 2°54.331 23.1174 0.009503 0.052792 -3.020363
2011-07-15 12:47:16 51°14.973 2°54.56 23.0797 0.009503 0.05279 -3.020363
2011-07-15 12:48:15 51°14.84 2°54.787 23.1049 0.009503 0.052787 -3.020363
2011-07-15 12:49:14 51°14.689 2°54.972 23.1119 0.009503 0.052787 -3.020363
2011-07-15 12:50:14 51°14.517 2°55.095 23.1362 0.009503 0.052785 -3.020363
2011-07-15 12:51:16 51°14.334 2°55.235 23.1407 0.009503 0.052782 -3.020363
2011-07-15 12:52:18 51°14.16 2°55.375 23.1502 0.009503 0.05278 -3.020363
2011-07-15 12:53:18 51°14.028 2°55.474 23.1544 0.009503 0.052779 -3.020363
2011-07-15 12:54:17 51°13.914 2°55.56 23.163 0.009503 0.052777 -3.020363
2011-07-15 12:55:18 51°13.805 2°55.647 23.1703 0.009503 0.052775 -3.020363
2011-07-15 12:56:18 51°13.722 2°55.763 23.1679 0.009503 0.052772 -3.020363
2011-07-15 12:57:17 51°13.67 2°55.873 23.1743 0.009503 0.052769 -3.020363
2011-07-15 12:58:15 51°13.644 2°55.969 23.1746 0.009503 0.052766 -3.020363
2011-07-15 12:59:14 51°13.636 2°56.014 23.195 0.009503 0.052763 -3.020363